createdAt,value
2023-04-18T00:01:45.746Z,46.90
2023-04-18T00:04:13.985Z,46.90
2023-04-18T00:06:41.039Z,46.80
2023-04-18T00:09:07.990Z,46.80
2023-04-18T00:11:35.109Z,46.60
2023-04-18T00:14:03.311Z,46.50
2023-04-18T00:16:30.557Z,46.40
2023-04-18T00:18:57.523Z,46.10
2023-04-18T00:21:25.637Z,46.00
2023-04-18T00:23:52.618Z,45.80
2023-04-18T00:26:19.621Z,45.50
2023-04-18T00:28:47.982Z,45.40
2023-04-18T00:31:14.898Z,45.50
2023-04-18T00:33:41.728Z,45.30
2023-04-18T00:36:08.919Z,45.20
2023-04-18T00:38:35.926Z,45.30
2023-04-18T00:41:02.718Z,45.30
2023-04-18T00:43:29.460Z,45.40
2023-04-18T00:45:57.234Z,45.50
2023-04-18T00:48:24.800Z,45.50
2023-04-18T00:50:54.436Z,45.40
2023-04-18T00:53:21.833Z,45.30
2023-04-18T00:55:48.787Z,45.30
2023-04-18T00:58:15.860Z,44.90
2023-04-18T01:00:43.413Z,44.70
2023-04-18T01:03:15.305Z,44.50
2023-04-18T01:05:42.200Z,44.10
2023-04-18T01:08:09.076Z,43.80
2023-04-18T01:10:37.137Z,43.80
2023-04-18T01:13:15.922Z,43.60
2023-04-18T01:15:46.881Z,43.40
2023-04-18T01:18:17.562Z,43.20
2023-04-18T01:20:50.754Z,43.10
2023-04-18T01:23:20.330Z,43.30
2023-04-18T01:25:49.389Z,43.00
2023-04-18T01:28:20.009Z,42.90
2023-04-18T01:30:48.506Z,42.90
2023-04-18T01:33:15.275Z,42.60
2023-04-18T01:35:42.030Z,42.50
2023-04-18T01:38:08.827Z,42.40
2023-04-18T01:40:35.663Z,42.20
2023-04-18T01:43:02.439Z,42.20
2023-04-18T01:45:29.190Z,42.20
2023-04-18T01:47:55.982Z,42.10
2023-04-18T01:50:22.951Z,42.00
2023-04-18T01:52:49.714Z,42.00
2023-04-18T01:55:16.503Z,41.90
2023-04-18T01:57:43.344Z,41.80
2023-04-18T02:00:11.149Z,41.70
2023-04-18T02:02:44.124Z,41.50
2023-04-18T02:05:11.280Z,41.60
2023-04-18T02:07:39.936Z,41.60
2023-04-18T02:10:08.085Z,41.70
2023-04-18T02:12:34.821Z,41.60
2023-04-18T02:15:01.838Z,41.50
2023-04-18T02:17:29.199Z,41.50
2023-04-18T02:19:56.178Z,41.30
2023-04-18T02:22:22.969Z,41.50
2023-04-18T02:24:49.806Z,41.50
2023-04-18T02:27:16.620Z,41.30
2023-04-18T02:29:43.364Z,41.20
2023-04-18T02:32:10.495Z,41.10
2023-04-18T02:34:37.513Z,41.40
2023-04-18T02:37:04.858Z,41.30
2023-04-18T02:39:32.495Z,41.20
2023-04-18T02:41:59.339Z,41.20
2023-04-18T02:44:26.195Z,41.10
2023-04-18T02:46:52.946Z,40.90
2023-04-18T02:49:20.014Z,41.00
2023-04-18T02:51:47.338Z,41.10
2023-04-18T02:54:15.396Z,41.00
2023-04-18T02:56:55.309Z,40.90
2023-04-18T02:59:25.589Z,40.90
2023-04-18T03:02:04.795Z,40.90
2023-04-18T03:04:32.721Z,40.90
2023-04-18T03:07:02.617Z,40.70
2023-04-18T03:09:33.507Z,40.70
2023-04-18T03:12:05.603Z,40.80
2023-04-18T03:14:34.161Z,40.80
2023-04-18T03:17:00.934Z,40.90
2023-04-18T03:19:34.142Z,40.80
2023-04-18T03:22:06.062Z,40.70
2023-04-18T03:24:34.311Z,40.80
2023-04-18T03:27:03.355Z,40.80
2023-04-18T03:29:30.245Z,40.90
2023-04-18T03:31:57.391Z,40.80
2023-04-18T03:34:24.403Z,40.60
2023-04-18T03:36:51.886Z,40.70
2023-04-18T03:39:18.665Z,40.70
2023-04-18T03:41:45.445Z,40.80
2023-04-18T03:44:13.063Z,40.70
2023-04-18T03:46:41.822Z,40.80
2023-04-18T03:49:10.050Z,40.80
2023-04-18T03:51:49.293Z,40.70
2023-04-18T03:54:17.122Z,40.60
2023-04-18T03:56:44.657Z,40.60
2023-04-18T03:59:12.414Z,40.60
2023-04-18T04:01:41.492Z,40.80
2023-04-18T04:04:09.352Z,40.70
2023-04-18T04:06:36.527Z,40.90
2023-04-18T04:09:03.856Z,40.80
2023-04-18T04:11:30.785Z,40.80
2023-04-18T04:13:57.937Z,41.90
2023-04-18T04:16:30.407Z,40.90
2023-04-18T04:18:57.380Z,41.10
2023-04-18T04:21:31.367Z,41.00
2023-04-18T04:23:58.428Z,41.00
2023-04-18T04:26:35.657Z,41.10
2023-04-18T04:29:10.068Z,40.90
2023-04-18T04:31:38.794Z,41.00
2023-04-18T04:34:06.236Z,41.10
2023-04-18T04:36:33.465Z,41.20
2023-04-18T04:39:04.171Z,41.30
2023-04-18T04:41:57.643Z,41.40
2023-04-18T04:44:28.279Z,41.50
2023-04-18T04:46:55.981Z,41.50
2023-04-18T04:49:28.001Z,41.40
2023-04-18T04:51:54.751Z,41.50
2023-04-18T04:54:21.765Z,41.70
2023-04-18T04:56:48.634Z,41.70
2023-04-18T04:59:15.787Z,41.70
2023-04-18T05:01:44.794Z,41.70
2023-04-18T05:04:12.680Z,41.80
2023-04-18T05:06:40.390Z,41.90
2023-04-18T05:09:07.258Z,41.90
2023-04-18T05:11:34.032Z,42.00
2023-04-18T05:14:00.801Z,42.10
2023-04-18T05:16:27.602Z,42.40
2023-04-18T05:18:54.388Z,42.30
2023-04-18T05:21:21.124Z,42.30
2023-04-18T05:23:47.968Z,42.30
2023-04-18T05:26:14.855Z,42.20
2023-04-18T05:28:42.376Z,42.10
2023-04-18T05:31:09.195Z,41.90
2023-04-18T05:33:36.031Z,41.80
2023-04-18T05:36:02.793Z,41.80
2023-04-18T05:38:29.564Z,41.90
2023-04-18T05:40:57.078Z,41.80
2023-04-18T05:43:23.900Z,41.90
2023-04-18T05:45:52.520Z,42.00
2023-04-18T05:48:19.596Z,41.90
2023-04-18T05:50:46.365Z,42.00
2023-04-18T05:53:13.174Z,42.20
2023-04-18T05:55:40.950Z,42.80
2023-04-18T05:58:08.081Z,43.00
2023-04-18T06:00:35.019Z,43.00
2023-04-18T06:03:02.023Z,42.80
2023-04-18T06:05:29.494Z,42.60
2023-04-18T06:07:57.623Z,42.40
2023-04-18T06:10:24.395Z,42.20
2023-04-18T06:12:51.187Z,42.20
2023-04-18T06:15:18.135Z,42.00
2023-04-18T06:17:44.956Z,41.80
2023-04-18T06:20:11.898Z,41.60
2023-04-18T06:22:38.803Z,41.50
2023-04-18T06:25:06.154Z,41.40
2023-04-18T06:27:32.940Z,41.20
2023-04-18T06:29:59.738Z,41.10
2023-04-18T06:32:26.725Z,41.10
2023-04-18T06:34:53.538Z,40.90
2023-04-18T06:37:20.699Z,40.90
2023-04-18T06:39:47.502Z,40.80
2023-04-18T06:42:14.289Z,40.70
2023-04-18T06:44:44.688Z,40.50
2023-04-18T06:47:11.705Z,40.60
2023-04-18T06:49:38.587Z,40.30
2023-04-18T06:52:05.460Z,40.30
2023-04-18T06:54:32.363Z,40.10
2023-04-18T06:56:59.491Z,41.10
2023-04-18T06:59:26.910Z,39.90
2023-04-18T07:01:53.804Z,39.90
2023-04-18T07:04:20.889Z,39.90
2023-04-18T07:06:47.863Z,39.90
2023-04-18T07:09:14.696Z,39.90
2023-04-18T07:11:41.460Z,39.90
2023-04-18T07:14:08.298Z,39.80
2023-04-18T07:16:35.216Z,39.80
2023-04-18T07:19:01.986Z,39.70
2023-04-18T07:21:28.785Z,39.60
2023-04-18T07:23:55.629Z,39.70
2023-04-18T07:26:22.527Z,39.60
2023-04-18T07:28:49.612Z,39.70
2023-04-18T07:31:16.648Z,39.70
2023-04-18T07:33:43.866Z,39.60
2023-04-18T07:36:10.968Z,39.50
2023-04-18T07:38:37.960Z,39.50
2023-04-18T07:41:04.858Z,39.50
2023-04-18T07:43:31.706Z,39.50
2023-04-18T07:45:58.696Z,39.50
2023-04-18T07:48:25.982Z,39.40
2023-04-18T07:50:53.844Z,39.30
2023-04-18T07:53:21.051Z,39.40
2023-04-18T07:55:48.214Z,39.30
2023-04-18T07:58:15.109Z,39.20
2023-04-18T08:00:43.011Z,39.30
2023-04-18T08:03:12.141Z,39.10
2023-04-18T08:05:40.587Z,39.00
2023-04-18T08:08:08.861Z,38.70
2023-04-18T08:10:36.483Z,38.40
2023-04-18T08:13:03.838Z,39.00
2023-04-18T08:15:32.759Z,37.70
2023-04-18T08:18:01.041Z,37.30
2023-04-18T08:20:28.280Z,37.40
2023-04-18T08:25:25.019Z,36.80
2023-04-18T08:27:51.750Z,36.50
2023-04-18T08:30:18.685Z,36.10
2023-04-18T08:32:45.451Z,36.80
2023-04-18T08:35:12.234Z,35.40
2023-04-18T08:37:39.335Z,35.40
2023-04-18T08:40:07.341Z,35.20
2023-04-18T08:42:35.286Z,35.30
2023-04-18T08:45:02.645Z,35.20
2023-04-18T08:47:29.988Z,35.20
2023-04-18T08:49:57.491Z,35.40
2023-04-18T08:52:25.802Z,35.40
2023-04-18T08:54:52.709Z,35.60
2023-04-18T08:57:26.720Z,35.70
2023-04-18T08:59:54.366Z,35.50
2023-04-18T09:02:23.375Z,35.40
2023-04-18T09:04:53.548Z,35.30
2023-04-18T09:07:28.375Z,35.10
2023-04-18T09:09:57.342Z,35.10
2023-04-18T09:12:26.301Z,35.20
2023-04-18T09:14:58.043Z,35.30
2023-04-18T09:17:35.557Z,35.40
2023-04-18T09:20:06.333Z,35.30
2023-04-18T09:22:50.398Z,35.30
2023-04-18T09:25:34.909Z,35.40
2023-04-18T09:28:03.134Z,35.50
2023-04-18T09:30:40.954Z,35.20
2023-04-18T09:33:09.971Z,35.00
2023-04-18T09:35:37.951Z,34.60
2023-04-18T09:38:05.761Z,34.10
2023-04-18T09:40:33.170Z,33.80
2023-04-18T09:43:00.396Z,33.40
2023-04-18T09:45:27.528Z,33.10
2023-04-18T09:47:55.872Z,33.10
2023-04-18T09:50:22.676Z,33.00
2023-04-18T09:52:49.452Z,33.00
2023-04-18T09:55:19.618Z,33.00
2023-04-18T09:57:47.920Z,33.20
2023-04-18T10:00:24.735Z,34.20
2023-04-18T10:02:59.803Z,33.30
2023-04-18T10:05:30.783Z,33.50
2023-04-18T10:07:58.281Z,33.60
2023-04-18T10:10:25.567Z,33.70
2023-04-18T10:12:55.206Z,33.90
2023-04-18T10:15:26.359Z,34.00
2023-04-18T10:18:04.352Z,34.10
2023-04-18T10:20:34.764Z,34.20
2023-04-18T10:23:30.749Z,34.30
2023-04-18T10:26:01.034Z,34.40
2023-04-18T10:28:47.863Z,34.60
2023-04-18T10:31:16.116Z,34.70
2023-04-18T10:34:00.667Z,35.00
2023-04-18T10:36:31.159Z,35.10
2023-04-18T10:39:19.315Z,34.60
2023-04-18T10:41:51.157Z,34.30
2023-04-18T10:44:23.032Z,34.30
2023-04-18T10:46:53.366Z,34.20
2023-04-18T10:49:20.114Z,34.20
2023-04-18T10:51:51.771Z,34.40
2023-04-18T10:54:38.085Z,34.50
2023-04-18T10:57:07.639Z,34.10
2023-04-18T10:59:39.105Z,33.80
2023-04-18T11:02:26.436Z,33.60
2023-04-18T11:04:55.224Z,33.50
2023-04-18T11:07:45.057Z,33.60
2023-04-18T11:10:12.873Z,33.80
2023-04-18T11:12:41.846Z,35.50
2023-04-18T11:15:23.496Z,38.10
2023-04-18T11:18:16.586Z,38.50
2023-04-18T11:20:49.364Z,40.60
2023-04-18T11:23:23.014Z,40.80
2023-04-18T11:25:51.968Z,41.50
2023-04-18T11:28:21.183Z,42.30
2023-04-18T11:30:48.300Z,43.50
2023-04-18T11:33:15.422Z,44.40
2023-04-18T11:35:46.355Z,45.10
2023-04-18T11:38:14.998Z,45.80
2023-04-18T11:40:51.336Z,46.60
2023-04-18T11:43:23.416Z,47.20
2023-04-18T11:45:54.625Z,46.00
2023-04-18T11:48:21.583Z,47.20
2023-04-18T11:50:48.493Z,47.90
2023-04-18T11:53:15.323Z,48.20
2023-04-18T11:55:53.569Z,48.70
2023-04-18T11:58:33.934Z,48.90
2023-04-18T12:01:17.552Z,49.60
2023-04-18T12:03:59.241Z,50.00
2023-04-18T12:06:26.955Z,51.40
2023-04-18T12:09:02.825Z,50.60
2023-04-18T12:11:29.606Z,50.30
2023-04-18T12:13:56.852Z,50.40
2023-04-18T12:16:28.278Z,51.10
2023-04-18T12:19:02.985Z,51.50
2023-04-18T12:21:30.198Z,51.70
2023-04-18T12:23:58.536Z,51.10
2023-04-18T12:26:26.762Z,50.70
2023-04-18T12:28:54.088Z,49.80
2023-04-18T12:31:22.394Z,49.60
2023-04-18T12:33:50.485Z,49.20
2023-04-18T12:36:17.223Z,48.90
2023-04-18T12:38:44.462Z,48.90
2023-04-18T12:41:11.323Z,49.50
2023-04-18T12:43:38.136Z,49.90
2023-04-18T12:46:05.392Z,50.80
2023-04-18T12:48:32.114Z,51.50
2023-04-18T12:50:58.832Z,51.80
2023-04-18T12:53:25.678Z,52.50
2023-04-18T12:55:52.500Z,52.90
2023-04-18T12:58:20.514Z,53.90
2023-04-18T13:00:47.324Z,52.20
2023-04-18T13:03:14.279Z,52.60
2023-04-18T13:05:41.345Z,52.70
2023-04-18T13:08:16.776Z,53.00
2023-04-18T13:10:44.938Z,53.50
2023-04-18T13:13:11.803Z,53.00
2023-04-18T13:15:38.603Z,53.20
2023-04-18T13:18:06.703Z,53.90
2023-04-18T13:20:34.428Z,54.40
2023-04-18T13:23:02.730Z,54.20
2023-04-18T13:25:29.668Z,54.70
2023-04-18T13:27:58.455Z,54.90
2023-04-18T13:30:25.555Z,55.00
2023-04-18T13:32:52.444Z,55.10
2023-04-18T13:35:19.266Z,54.30
2023-04-18T13:37:46.309Z,53.00
2023-04-18T13:40:13.601Z,53.10
2023-04-18T13:42:40.462Z,53.50
2023-04-18T13:45:07.774Z,54.20
2023-04-18T13:47:35.065Z,53.40
2023-04-18T13:50:01.995Z,54.10
2023-04-18T13:52:28.819Z,54.70
2023-04-18T13:54:55.655Z,54.60
2023-04-18T13:57:23.201Z,54.70
2023-04-18T13:59:49.976Z,53.90
2023-04-18T14:02:16.965Z,53.00
2023-04-18T14:04:44.129Z,52.30
2023-04-18T14:07:11.108Z,52.30
2023-04-18T14:09:37.984Z,53.20
2023-04-18T14:12:05.172Z,53.70
2023-04-18T14:14:31.977Z,54.20
2023-04-18T14:16:58.739Z,53.20
2023-04-18T14:19:27.171Z,53.30
2023-04-18T14:21:53.991Z,52.20
2023-04-18T14:24:20.773Z,51.60
2023-04-18T14:26:47.958Z,52.50
2023-04-18T14:29:14.927Z,52.70
2023-04-18T14:31:42.071Z,53.20
2023-04-18T14:34:09.655Z,53.20
2023-04-18T14:36:36.964Z,52.30
2023-04-18T14:39:04.640Z,52.60
2023-04-18T14:41:31.556Z,53.20
2023-04-18T14:43:58.413Z,53.70
2023-04-18T14:46:27.084Z,53.20
2023-04-18T14:48:54.564Z,53.80
2023-04-18T14:51:21.396Z,53.50
2023-04-18T14:53:48.326Z,53.20
2023-04-18T14:56:16.117Z,53.10
2023-04-18T14:58:43.832Z,54.40
2023-04-18T15:01:10.611Z,52.90
2023-04-18T15:03:37.476Z,51.90
2023-04-18T15:06:04.541Z,52.80
2023-04-18T15:08:32.819Z,52.70
2023-04-18T15:10:59.784Z,51.60
2023-04-18T15:13:26.592Z,52.30
2023-04-18T15:15:54.531Z,52.50
2023-04-18T15:18:21.556Z,52.00
2023-04-18T15:20:48.420Z,52.50
2023-04-18T15:23:15.856Z,53.20
2023-04-18T15:25:45.719Z,52.40
2023-04-18T15:28:13.852Z,51.60
2023-04-18T15:30:40.696Z,50.60
2023-04-18T15:33:07.741Z,50.00
2023-04-18T15:35:34.659Z,50.30
2023-04-18T15:38:01.509Z,49.60
2023-04-18T15:40:28.255Z,49.20
2023-04-18T15:42:56.108Z,50.10
2023-04-18T15:45:23.304Z,50.00
2023-04-18T15:47:50.429Z,50.10
2023-04-18T15:50:17.531Z,49.90
2023-04-18T15:52:44.346Z,51.70
2023-04-18T15:55:13.226Z,51.40
2023-04-18T15:57:40.651Z,52.00
2023-04-18T16:00:15.677Z,52.20
2023-04-18T16:02:44.015Z,51.60
2023-04-18T16:05:12.362Z,51.00
2023-04-18T16:07:40.468Z,50.70
2023-04-18T16:10:11.263Z,50.60
2023-04-18T16:12:39.250Z,50.70
2023-04-18T16:15:08.591Z,50.60
2023-04-18T16:17:37.158Z,50.80
2023-04-18T16:20:04.391Z,51.00
2023-04-18T16:22:31.410Z,51.70
2023-04-18T16:24:58.225Z,51.40
2023-04-18T16:27:25.123Z,51.90
2023-04-18T16:29:53.686Z,51.30
2023-04-18T16:32:21.645Z,50.60
2023-04-18T16:34:48.612Z,50.80
2023-04-18T16:37:15.508Z,52.20
2023-04-18T16:39:42.501Z,53.00
2023-04-18T16:42:09.266Z,53.00
2023-04-18T16:44:36.009Z,52.50
2023-04-18T16:47:05.058Z,52.80
2023-04-18T16:49:31.985Z,53.00
2023-04-18T16:51:58.793Z,53.30
2023-04-18T16:54:25.573Z,54.30
2023-04-18T16:56:52.362Z,54.70
2023-04-18T16:59:19.276Z,54.20
2023-04-18T17:01:46.309Z,54.20
2023-04-18T17:04:13.375Z,54.30
2023-04-18T17:06:42.819Z,55.00
2023-04-18T17:09:09.692Z,54.90
2023-04-18T17:11:39.632Z,55.50
2023-04-18T17:14:08.552Z,55.60
2023-04-18T17:16:38.718Z,55.40
2023-04-18T17:19:06.021Z,56.00
2023-04-18T17:21:36.749Z,56.00
2023-04-18T17:24:07.111Z,55.70
2023-04-18T17:26:34.935Z,56.00
2023-04-18T17:29:04.075Z,56.30
2023-04-18T17:31:34.459Z,55.10
2023-04-18T17:34:01.325Z,54.00
2023-04-18T17:36:28.194Z,53.00
2023-04-18T17:38:55.252Z,52.10
2023-04-18T17:41:22.231Z,52.70
2023-04-18T17:43:50.970Z,53.30
2023-04-18T17:46:17.980Z,53.70
2023-04-18T17:48:44.752Z,52.80
2023-04-18T17:51:11.601Z,53.30
2023-04-18T17:53:38.426Z,54.30
2023-04-18T17:56:05.416Z,54.10
2023-04-18T17:58:32.219Z,53.80
2023-04-18T18:00:59.156Z,53.10
2023-04-18T18:03:26.116Z,54.60
2023-04-18T18:05:54.914Z,54.30
2023-04-18T18:08:22.636Z,53.60
2023-04-18T18:10:49.791Z,53.60
2023-04-18T18:13:16.693Z,53.60
2023-04-18T18:15:43.619Z,53.60
2023-04-18T18:18:10.473Z,54.70
2023-04-18T18:20:37.316Z,55.50
2023-04-18T18:23:04.093Z,55.40
2023-04-18T18:25:31.107Z,56.00
2023-04-18T18:27:58.203Z,56.30
2023-04-18T18:30:25.142Z,57.60
2023-04-18T18:32:53.479Z,56.20
2023-04-18T18:35:20.652Z,56.70
2023-04-18T18:37:47.566Z,56.90
2023-04-18T18:40:14.667Z,57.30
2023-04-18T18:42:42.582Z,57.50
2023-04-18T18:45:09.932Z,57.60
2023-04-18T18:47:39.660Z,57.20
2023-04-18T18:50:07.636Z,57.50
2023-04-18T18:52:34.526Z,57.80
2023-04-18T18:55:01.618Z,58.00
2023-04-18T18:57:28.436Z,58.00
2023-04-18T18:59:55.980Z,58.10
2023-04-18T19:02:23.192Z,58.30
2023-04-18T19:04:50.242Z,58.10
2023-04-18T19:07:17.237Z,58.40
2023-04-18T19:09:44.412Z,58.60
2023-04-18T19:12:11.173Z,58.60
2023-04-18T19:14:38.082Z,55.90
2023-04-18T19:17:04.977Z,53.00
2023-04-18T19:19:31.840Z,51.20
2023-04-18T19:22:00.426Z,50.20
2023-04-18T19:24:27.162Z,49.70
2023-04-18T19:26:54.041Z,49.00
2023-04-18T19:29:22.618Z,48.50
2023-04-18T19:31:49.611Z,48.00
2023-04-18T19:34:18.828Z,47.80
2023-04-18T19:36:45.840Z,48.60
2023-04-18T19:39:12.888Z,47.30
2023-04-18T19:41:41.414Z,47.00
2023-04-18T19:44:08.190Z,46.90
2023-04-18T19:46:35.056Z,46.90
2023-04-18T19:49:01.873Z,46.70
2023-04-18T19:51:28.724Z,46.50
2023-04-18T19:53:55.673Z,46.60
2023-04-18T19:56:22.565Z,46.50
2023-04-18T19:58:49.444Z,46.40
2023-04-18T20:01:18.266Z,46.30
2023-04-18T20:03:45.993Z,46.20
2023-04-18T20:06:13.271Z,46.10
2023-04-18T20:08:45.072Z,46.00
2023-04-18T20:11:13.954Z,46.00
2023-04-18T20:13:41.544Z,45.90
2023-04-18T20:16:09.410Z,45.90
2023-04-18T20:18:41.438Z,45.80
2023-04-18T20:21:10.005Z,45.60
2023-04-18T20:23:37.351Z,45.80
2023-04-18T20:26:04.359Z,45.90
2023-04-18T20:28:31.795Z,46.00
2023-04-18T20:30:58.829Z,45.90
2023-04-18T20:33:25.757Z,45.80
2023-04-18T20:35:53.655Z,45.60
2023-04-18T20:38:25.785Z,45.70
2023-04-18T20:40:54.003Z,45.60
2023-04-18T20:43:21.337Z,45.40
2023-04-18T20:45:51.581Z,45.60
2023-04-18T20:48:18.577Z,45.50
2023-04-18T20:50:51.046Z,45.50
2023-04-18T20:53:22.292Z,45.70
2023-04-18T20:55:49.117Z,45.70
2023-04-18T20:58:16.152Z,45.50
2023-04-18T21:00:44.511Z,45.50
2023-04-18T21:03:18.192Z,45.60
2023-04-18T21:05:45.538Z,45.60
2023-04-18T21:08:12.492Z,45.70
2023-04-18T21:10:39.762Z,45.60
2023-04-18T21:13:06.558Z,45.60
2023-04-18T21:15:34.376Z,45.70
2023-04-18T21:18:01.174Z,45.60
2023-04-18T21:20:27.940Z,46.60
2023-04-18T21:22:54.696Z,45.70
2023-04-18T21:25:21.473Z,45.70
2023-04-18T21:27:50.441Z,45.80
2023-04-18T21:30:17.444Z,45.90
2023-04-18T21:32:44.349Z,45.90
2023-04-18T21:35:11.533Z,45.90
2023-04-18T21:37:38.284Z,45.80
2023-04-18T21:40:05.739Z,45.80
2023-04-18T21:42:32.703Z,46.00
2023-04-18T21:44:59.474Z,46.00
2023-04-18T21:47:26.300Z,46.10
2023-04-18T21:49:53.074Z,46.00
2023-04-18T21:52:19.894Z,46.10
2023-04-18T21:54:46.723Z,46.10
2023-04-18T21:57:13.451Z,46.10
2023-04-18T21:59:40.374Z,46.30
2023-04-18T22:02:07.222Z,46.40
2023-04-18T22:04:34.641Z,46.40
2023-04-18T22:07:01.482Z,46.40
2023-04-18T22:09:29.487Z,46.40
2023-04-18T22:11:57.058Z,46.60
2023-04-18T22:14:24.816Z,46.50
2023-04-18T22:16:51.792Z,46.60
2023-04-18T22:19:19.188Z,46.60
2023-04-18T22:21:46.233Z,46.50
2023-04-18T22:24:13.232Z,46.60
2023-04-18T22:26:40.809Z,46.60
2023-04-18T22:29:07.629Z,47.70
2023-04-18T22:31:34.376Z,46.80
2023-04-18T22:34:01.251Z,46.70
2023-04-18T22:36:28.036Z,46.80
2023-04-18T22:38:54.861Z,46.80
2023-04-18T22:41:21.632Z,46.90
2023-04-18T22:43:48.392Z,46.90
2023-04-18T22:46:15.313Z,47.10
2023-04-18T22:48:42.082Z,47.20
2023-04-18T22:51:08.919Z,47.20
2023-04-18T22:53:35.759Z,47.20
2023-04-18T22:56:02.583Z,47.40
2023-04-18T22:58:29.727Z,47.60
2023-04-18T23:00:56.563Z,47.70
2023-04-18T23:03:23.549Z,47.70
2023-04-18T23:05:50.740Z,47.80
2023-04-18T23:08:20.508Z,47.80
2023-04-18T23:10:47.238Z,47.90
2023-04-18T23:13:14.569Z,48.00
2023-04-18T23:15:41.325Z,48.00
2023-04-18T23:18:08.200Z,47.90
2023-04-18T23:20:36.307Z,48.00
2023-04-18T23:23:03.064Z,48.00
2023-04-18T23:25:33.168Z,48.10
2023-04-18T23:28:00.218Z,48.20
2023-04-18T23:30:27.042Z,48.30
2023-04-18T23:32:53.936Z,48.50
2023-04-18T23:35:20.715Z,48.50
2023-04-18T23:37:47.460Z,48.60
2023-04-18T23:40:14.551Z,49.60
2023-04-18T23:42:42.038Z,48.60
2023-04-18T23:45:08.985Z,48.70
2023-04-18T23:47:35.794Z,49.00
2023-04-18T23:50:02.596Z,49.00
2023-04-18T23:52:29.348Z,49.10
2023-04-18T23:55:02.156Z,49.10
2023-04-18T23:57:28.914Z,49.00
2023-04-18T23:59:55.786Z,49.40
